Time;durP1;ratioP1;P1;durP2;ratioP2;P2;SDS_P1;SDS_P2;PMS_P1;PMS_P2;Temp;Humidity;BMP_temperature;BMP_pressure;BME280_temperature;BME280_humidity;BME280_pressure;Samples;Min_cycle;Max_cycle;Signal;HPM_P1;HPM_P2
2022/03/29 00:00:05;;;;;;;30.50;14.23;;;8.10;99.90;;;;;;4136935;28;20225;-78
2022/03/29 00:02:07;;;;;;;28.57;13.13;;;8.00;99.90;;;;;;4135456;28;20903;-78
2022/03/29 00:04:09;;;;;;;32.17;13.37;;;8.00;99.90;;;;;;4127589;28;20542;-78
2022/03/29 00:06:13;;;;;;;29.87;13.70;;;7.90;99.90;;;;;;4137553;28;21045;-78
2022/03/29 00:08:15;;;;;;;32.00;13.37;;;7.80;99.90;;;;;;4132823;28;20470;-78
2022/03/29 00:10:18;;;;;;;31.93;14.00;;;7.80;99.90;;;;;;4130921;28;20491;-79
2022/03/29 00:12:20;;;;;;;29.07;13.20;;;7.80;99.90;;;;;;4121116;28;20479;-78
2022/03/29 00:14:21;;;;;;;27.77;13.03;;;7.80;99.90;;;;;;4129649;28;20506;-78
2022/03/29 00:16:23;;;;;;;34.77;13.77;;;7.70;99.90;;;;;;4134120;28;20456;-78
2022/03/29 00:18:25;;;;;;;30.93;13.53;;;7.70;99.90;;;;;;4118941;28;20468;-78
2022/03/29 00:20:26;;;;;;;29.80;13.63;;;7.70;99.90;;;;;;4130861;28;21062;-78
2022/03/29 00:22:28;;;;;;;27.73;13.03;;;7.60;99.90;;;;;;4139332;28;20463;-79
2022/03/29 00:24:30;;;;;;;30.50;13.33;;;7.60;99.90;;;;;;4141324;28;20482;-78
2022/03/29 00:26:33;;;;;;;28.60;13.10;;;7.60;99.90;;;;;;4140026;28;20477;-78
2022/03/29 00:28:35;;;;;;;31.60;13.80;;;7.50;99.90;;;;;;4144074;28;20463;-79
2022/03/29 00:30:37;;;;;;;28.87;13.17;;;7.50;99.90;;;;;;4143949;28;20503;-78
2022/03/29 00:32:40;;;;;;;32.37;13.40;;;7.40;99.90;;;;;;4146153;28;20481;-78
2022/03/29 00:34:42;;;;;;;33.27;13.60;;;7.40;99.90;;;;;;4140050;28;20459;-78
2022/03/29 00:36:44;;;;;;;31.00;13.33;;;7.40;99.90;;;;;;4131065;28;20483;-78
2022/03/29 00:38:47;;;;;;;31.63;12.80;;;7.30;99.90;;;;;;4138479;28;20466;-79
2022/03/29 00:40:48;;;;;;;28.87;12.93;;;7.30;99.90;;;;;;4142530;28;20495;-78
2022/03/29 00:42:52;;;;;;;30.87;13.20;;;7.20;99.90;;;;;;4146273;28;20463;-78
2022/03/29 00:44:53;;;;;;;29.40;13.30;;;7.20;99.90;;;;;;4139527;28;20825;-79
2022/03/29 00:46:55;;;;;;;27.50;12.87;;;7.20;99.90;;;;;;4119133;28;20468;-79
2022/03/29 00:48:57;;;;;;;31.70;13.17;;;7.20;99.90;;;;;;4115578;28;20473;-79
2022/03/29 00:50:59;;;;;;;30.90;14.20;;;7.10;99.90;;;;;;4124824;28;20589;-79
2022/03/29 00:53:01;;;;;;;31.43;13.23;;;7.10;99.90;;;;;;4129867;28;20471;-79
2022/03/29 00:55:03;;;;;;;31.40;12.97;;;7.10;99.90;;;;;;4128398;28;20475;-79
2022/03/29 00:57:06;;;;;;;31.20;13.50;;;7.10;99.90;;;;;;4131552;28;20979;-78
2022/03/29 00:59:09;;;;;;;34.43;14.13;;;7.00;99.90;;;;;;4132368;28;20450;-78
2022/03/29 01:01:11;;;;;;;32.73;14.60;;;6.90;99.90;;;;;;4132318;28;20482;-78
2022/03/29 01:03:15;;;;;;;26.57;12.37;;;6.90;99.90;;;;;;4129061;28;20474;-78
2022/03/29 01:05:17;;;;;;;33.47;13.97;;;6.90;99.90;;;;;;4126766;28;20514;-78
2022/03/29 01:07:19;;;;;;;31.70;14.53;;;6.90;99.90;;;;;;4131406;28;20526;-79
2022/03/29 01:09:21;;;;;;;33.33;15.37;;;6.80;99.90;;;;;;4132480;28;20553;-79
2022/03/29 01:11:23;;;;;;;33.63;13.80;;;6.80;99.90;;;;;;4127347;28;20556;-78
2022/03/29 01:13:24;;;;;;;31.03;14.10;;;6.80;99.90;;;;;;4130561;28;20834;-79
2022/03/29 01:15:30;;;;;;;34.37;14.20;;;6.70;99.90;;;;;;4131741;28;20453;-79
2022/03/29 01:17:43;;;;;;;31.93;13.63;;;6.80;99.90;;;;;;4124707;28;20478;-79
2022/03/29 01:19:44;;;;;;;32.77;14.77;;;6.70;99.90;;;;;;4115782;28;20455;-79
2022/03/29 01:21:55;;;;;;;33.00;13.17;;;6.60;99.90;;;;;;4122351;28;21022;-79
2022/03/29 01:23:57;;;;;;;30.60;13.57;;;6.60;99.90;;;;;;4131661;28;20960;-79
2022/03/29 01:25:59;;;;;;;33.43;13.93;;;6.60;99.90;;;;;;4128767;28;20497;-79
2022/03/29 01:28:03;;;;;;;37.63;15.03;;;6.50;99.90;;;;;;4129699;28;20517;-79
2022/03/29 01:30:06;;;;;;;38.00;14.67;;;6.50;99.90;;;;;;4131343;28;20466;-79
2022/03/29 01:32:10;;;;;;;33.77;15.17;;;6.50;99.90;;;;;;4131272;28;20478;-80
2022/03/29 01:34:12;;;;;;;35.63;14.73;;;6.50;99.90;;;;;;4131265;28;20483;-79
2022/03/29 01:36:14;;;;;;;34.60;14.70;;;6.50;99.90;;;;;;4130667;28;20470;-79
2022/03/29 01:38:17;;;;;;;36.63;15.30;;;6.50;99.90;;;;;;4131018;28;20457;-79
2022/03/29 01:40:22;;;;;;;36.90;15.67;;;6.60;99.90;;;;;;4130371;28;20596;-79
2022/03/29 01:42:26;;;;;;;30.07;13.83;;;6.50;99.90;;;;;;4129434;28;20481;-79
2022/03/29 01:44:28;;;;;;;36.23;14.83;;;6.60;99.90;;;;;;4130747;28;20479;-79
2022/03/29 01:46:30;;;;;;;32.73;14.47;;;6.60;99.90;;;;;;4141922;28;20610;-79
2022/03/29 01:48:32;;;;;;;33.73;15.53;;;6.60;99.90;;;;;;4143865;28;20463;-79
2022/03/29 01:50:33;;;;;;;32.63;14.33;;;6.70;99.90;;;;;;4145090;28;20544;-79
2022/03/29 01:52:40;;;;;;;33.37;13.97;;;6.90;99.90;;;;;;4137200;28;20478;-79
2022/03/29 01:54:43;;;;;;;37.20;14.53;;;6.70;99.90;;;;;;4138550;28;21002;-78
2022/03/29 01:56:45;;;;;;;32.10;14.47;;;6.60;99.90;;;;;;4130060;28;20923;-78
2022/03/29 01:58:47;;;;;;;34.30;15.37;;;6.70;99.90;;;;;;4130827;28;20509;-78
2022/03/29 02:00:47;;;;;;;30.90;14.17;;;6.60;99.90;;;;;;4128769;28;21058;-78
2022/03/29 02:02:49;;;;;;;32.13;15.00;;;6.70;99.90;;;;;;4131875;28;20462;-78
2022/03/29 02:04:51;;;;;;;37.10;15.50;;;6.70;99.90;;;;;;4131173;28;21022;-79
2022/03/29 02:06:53;;;;;;;35.03;15.13;;;6.60;99.90;;;;;;4132013;28;20499;-79
2022/03/29 02:08:57;;;;;;;33.87;15.33;;;6.70;99.90;;;;;;4130288;28;20470;-77
2022/03/29 02:11:00;;;;;;;32.97;14.97;;;6.70;99.90;;;;;;4137519;28;20493;-79
2022/03/29 02:13:02;;;;;;;32.30;15.07;;;6.70;99.90;;;;;;4131326;28;20991;-79
2022/03/29 02:15:05;;;;;;;35.37;15.77;;;6.70;99.90;;;;;;4130742;28;20550;-79
2022/03/29 02:17:07;;;;;;;35.23;15.30;;;6.80;99.90;;;;;;4129607;28;20470;-78
2022/03/29 02:19:09;;;;;;;36.30;17.57;;;6.80;99.90;;;;;;4194372;22;20951;-80
2022/03/29 02:21:14;;;;;;;40.50;18.50;;;6.80;99.90;;;;;;4147125;28;20461;-80
2022/03/29 02:23:16;;;;;;;37.37;17.40;;;6.70;99.90;;;;;;4147194;28;20511;-80
2022/03/29 02:25:18;;;;;;;39.00;17.50;;;6.80;99.90;;;;;;4147205;28;20511;-80
2022/03/29 02:27:21;;;;;;;39.87;17.53;;;6.80;99.90;;;;;;4146516;28;20460;-80
2022/03/29 02:29:23;;;;;;;41.73;17.87;;;6.90;99.90;;;;;;4147397;28;20481;-78
2022/03/29 02:31:25;;;;;;;39.93;18.33;;;6.90;99.90;;;;;;4145311;28;20465;-78
2022/03/29 02:33:26;;;;;;;44.57;18.60;;;6.90;99.90;;;;;;4145390;28;20449;-78
2022/03/29 02:35:31;;;;;;;36.80;16.73;;;7.00;99.90;;;;;;4138639;28;20474;-77
2022/03/29 02:37:33;;;;;;;45.13;18.17;;;6.90;99.90;;;;;;4145137;28;20462;-77
2022/03/29 02:39:35;;;;;;;42.23;18.37;;;6.90;99.90;;;;;;4144407;28;20499;-77
2022/03/29 02:41:37;;;;;;;43.83;18.33;;;6.90;99.90;;;;;;4145214;28;20512;-78
2022/03/29 02:43:40;;;;;;;42.13;18.30;;;6.90;99.90;;;;;;4140852;28;20474;-77
2022/03/29 02:45:42;;;;;;;40.20;17.77;;;6.90;99.90;;;;;;4150623;28;20493;-78
2022/03/29 02:47:44;;;;;;;42.97;19.73;;;6.90;99.90;;;;;;4148883;28;20535;-78
2022/03/29 02:49:47;;;;;;;42.50;19.60;;;6.80;99.90;;;;;;4146840;28;20623;-78
2022/03/29 02:51:49;;;;;;;40.03;18.53;;;6.80;99.90;;;;;;4141935;28;20640;-78
2022/03/29 02:53:51;;;;;;;40.17;18.73;;;6.80;99.90;;;;;;4144217;28;20481;-78
2022/03/29 02:55:52;;;;;;;38.77;19.70;;;6.90;99.90;;;;;;4144785;28;20519;-78
2022/03/29 02:57:55;;;;;;;35.63;18.80;;;6.90;99.90;;;;;;4144320;28;21029;-78
2022/03/29 02:59:58;;;;;;;39.37;19.17;;;6.90;99.90;;;;;;4143520;28;20491;-78
2022/03/29 03:01:59;;;;;;;37.13;18.60;;;6.90;99.90;;;;;;4142012;28;20564;-78
2022/03/29 03:04:02;;;;;;;37.07;18.87;;;6.90;99.90;;;;;;4145680;28;20516;-78
2022/03/29 03:06:04;;;;;;;37.20;18.43;;;6.90;99.90;;;;;;4144299;28;21018;-78
2022/03/29 03:08:06;;;;;;;44.27;19.67;;;6.90;99.90;;;;;;4145181;28;20524;-78
2022/03/29 03:10:11;;;;;;;39.90;19.10;;;6.80;99.90;;;;;;4144252;28;20508;-79
2022/03/29 03:12:16;;;;;;;34.90;17.80;;;6.80;99.90;;;;;;4144991;28;20963;-79
2022/03/29 03:14:17;;;;;;;34.27;18.00;;;6.80;99.90;;;;;;4144433;28;20868;-78
2022/03/29 03:16:21;;;;;;;35.27;17.20;;;6.80;99.90;;;;;;4143779;28;20523;-78
2022/03/29 03:18:23;;;;;;;34.53;17.07;;;6.90;99.90;;;;;;4141685;28;20486;-79
2022/03/29 03:20:26;;;;;;;29.80;16.83;;;6.90;99.90;;;;;;4144663;28;20469;-79
2022/03/29 03:22:28;;;;;;;31.47;15.60;;;6.90;99.90;;;;;;4144617;28;20884;-78
2022/03/29 03:24:30;;;;;;;32.20;15.87;;;6.80;99.90;;;;;;4141681;28;20477;-78
2022/03/29 03:26:32;;;;;;;32.93;16.03;;;6.90;99.90;;;;;;4139414;28;20490;-78
2022/03/29 03:28:34;;;;;;;34.03;16.47;;;6.80;99.90;;;;;;4138124;28;21060;-78
2022/03/29 03:30:36;;;;;;;29.23;14.73;;;6.70;99.90;;;;;;4144809;28;20979;-78
2022/03/29 03:32:39;;;;;;;33.83;16.60;;;6.70;99.90;;;;;;4144774;28;20481;-79
2022/03/29 03:34:42;;;;;;;30.50;15.57;;;6.80;99.90;;;;;;4144924;28;20470;-78
2022/03/29 03:36:43;;;;;;;31.00;16.47;;;6.80;99.90;;;;;;4135065;28;20542;-78
2022/03/29 03:38:45;;;;;;;34.97;16.90;;;6.70;99.90;;;;;;4135891;28;21029;-78
2022/03/29 03:40:47;;;;;;;30.57;15.40;;;6.60;99.90;;;;;;4143367;28;20470;-78
2022/03/29 03:42:51;;;;;;;31.87;15.40;;;6.60;99.90;;;;;;4143551;28;20473;-78
2022/03/29 03:44:53;;;;;;;32.53;16.40;;;6.70;99.90;;;;;;4133616;28;20487;-78
2022/03/29 03:46:55;;;;;;;36.37;18.53;;;6.70;99.90;;;;;;4136915;28;20492;-78
2022/03/29 03:49:01;;;;;;;36.90;18.33;;;6.60;99.90;;;;;;4144035;28;20864;-78
2022/03/29 03:51:03;;;;;;;37.27;18.43;;;6.60;99.90;;;;;;4144844;28;20561;-78
2022/03/29 03:53:04;;;;;;;36.13;17.50;;;6.60;99.90;;;;;;4138502;28;20523;-77
2022/03/29 03:55:08;;;;;;;36.03;18.30;;;6.60;99.90;;;;;;4143037;28;20474;-78
2022/03/29 03:57:09;;;;;;;34.23;16.27;;;6.60;99.90;;;;;;4143015;28;20834;-78
2022/03/29 03:59:11;;;;;;;36.10;16.57;;;6.60;99.90;;;;;;4142469;28;20560;-79
2022/03/29 04:01:14;;;;;;;30.13;15.43;;;6.60;99.90;;;;;;4141093;28;20462;-78
2022/03/29 04:03:16;;;;;;;29.97;15.20;;;6.60;99.90;;;;;;4127907;28;20494;-78
2022/03/29 04:05:19;;;;;;;28.30;14.87;;;6.60;99.90;;;;;;4143531;28;20470;-79
2022/03/29 04:07:21;;;;;;;32.37;15.17;;;6.60;99.90;;;;;;4143522;28;20501;-78
2022/03/29 04:09:22;;;;;;;29.50;14.70;;;6.60;99.90;;;;;;4139911;28;20537;-78
2022/03/29 04:11:24;;;;;;;27.47;13.60;;;6.60;99.90;;;;;;4139294;28;20465;-79
2022/03/29 04:13:26;;;;;;;29.90;14.57;;;6.60;99.90;;;;;;4143707;28;21177;-78
2022/03/29 04:15:28;;;;;;;27.93;14.53;;;6.60;99.90;;;;;;4143457;28;20471;-79
2022/03/29 04:17:31;;;;;;;31.57;15.77;;;6.60;99.90;;;;;;4141573;28;20874;-78
2022/03/29 04:19:33;;;;;;;27.63;14.10;;;6.50;99.90;;;;;;4143781;28;20569;-78
2022/03/29 04:21:36;;;;;;;30.37;15.27;;;6.50;99.90;;;;;;4144123;28;21030;-79
2022/03/29 04:23:38;;;;;;;26.27;14.17;;;6.50;99.90;;;;;;4143759;28;20470;-78
2022/03/29 04:25:40;;;;;;;28.57;14.30;;;6.50;99.90;;;;;;4140193;28;20756;-78
2022/03/29 04:27:42;;;;;;;28.00;13.70;;;6.40;99.90;;;;;;4142595;28;20524;-78
2022/03/29 04:29:44;;;;;;;27.90;14.33;;;6.40;99.90;;;;;;4143000;28;20949;-78
2022/03/29 04:31:45;;;;;;;34.37;15.13;;;6.40;99.90;;;;;;4141133;28;20508;-78
2022/03/29 04:33:47;;;;;;;27.60;14.00;;;6.40;99.90;;;;;;4149037;28;21031;-78
2022/03/29 04:35:49;;;;;;;30.10;14.67;;;6.40;99.90;;;;;;4148927;28;20826;-78
2022/03/29 04:37:53;;;;;;;28.53;14.67;;;6.40;99.90;;;;;;4149143;28;20453;-78
2022/03/29 04:39:55;;;;;;;29.90;14.53;;;6.40;99.90;;;;;;4145274;28;20522;-79
2022/03/29 04:41:57;;;;;;;28.10;14.83;;;6.40;99.90;;;;;;4149192;28;20485;-78
2022/03/29 04:43:59;;;;;;;28.37;14.83;;;6.40;99.90;;;;;;4149725;28;20953;-78
2022/03/29 04:46:01;;;;;;;37.87;16.37;;;6.40;99.90;;;;;;4147862;28;20735;-78
2022/03/29 04:48:03;;;;;;;34.67;17.13;;;6.30;99.90;;;;;;4147393;28;20492;-78
2022/03/29 04:50:06;;;;;;;36.60;18.67;;;6.30;99.90;;;;;;4149594;28;20609;-79
2022/03/29 04:52:08;;;;;;;36.10;17.27;;;6.30;99.90;;;;;;4151569;28;20468;-78
2022/03/29 04:54:11;;;;;;;38.43;17.57;;;6.20;99.90;;;;;;4150097;28;20459;-78
2022/03/29 04:56:13;;;;;;;35.07;17.07;;;6.30;99.90;;;;;;4145613;28;20486;-79
2022/03/29 04:58:15;;;;;;;38.90;17.67;;;6.30;99.90;;;;;;4148536;28;20473;-79
2022/03/29 05:00:20;;;;;;;32.33;16.50;;;6.20;99.90;;;;;;4148302;28;20484;-78
2022/03/29 05:02:23;;;;;;;32.13;16.50;;;6.20;99.90;;;;;;4146328;28;20812;-78
2022/03/29 05:04:25;;;;;;;31.63;15.53;;;6.20;99.90;;;;;;4148135;28;20462;-79
2022/03/29 05:06:27;;;;;;;29.90;16.00;;;6.20;99.90;;;;;;4146133;28;20491;-79
2022/03/29 05:08:28;;;;;;;29.00;15.60;;;6.20;99.90;;;;;;4148627;28;20456;-78
2022/03/29 05:10:32;;;;;;;33.97;16.10;;;6.20;99.90;;;;;;4147415;28;20976;-78
2022/03/29 05:12:39;;;;;;;32.17;15.53;;;6.10;99.90;;;;;;4147910;28;20472;-78
2022/03/29 05:14:41;;;;;;;31.50;16.10;;;6.10;99.90;;;;;;4145610;28;20483;-78
2022/03/29 05:16:42;;;;;;;31.23;17.13;;;6.10;99.90;;;;;;4147298;28;20868;-78
2022/03/29 05:18:45;;;;;;;39.23;17.93;;;6.10;99.90;;;;;;4132041;28;20524;-78
2022/03/29 05:20:47;;;;;;;33.37;16.43;;;6.10;99.90;;;;;;4147537;28;20461;-78
2022/03/29 05:22:51;;;;;;;32.90;16.63;;;6.10;99.90;;;;;;4147451;28;20480;-78
2022/03/29 05:24:52;;;;;;;32.53;15.97;;;5.90;99.90;;;;;;4148816;28;20485;-78
2022/03/29 05:26:55;;;;;;;30.63;16.63;;;6.00;99.90;;;;;;4148546;28;20495;-78
2022/03/29 05:28:57;;;;;;;32.23;16.13;;;5.90;99.90;;;;;;4146697;28;20480;-78
2022/03/29 05:30:59;;;;;;;30.97;16.80;;;6.00;99.90;;;;;;4147336;28;20483;-78
2022/03/29 05:33:03;;;;;;;36.83;18.57;;;6.00;99.90;;;;;;4146991;28;20470;-80
2022/03/29 05:35:07;;;;;;;33.70;17.73;;;6.10;99.90;;;;;;4149990;28;20805;-79
2022/03/29 05:37:08;;;;;;;35.70;17.30;;;6.10;99.90;;;;;;4148143;28;20459;-84
2022/03/29 05:39:10;;;;;;;34.83;16.87;;;6.20;99.90;;;;;;4148141;28;20490;-77
2022/03/29 05:41:15;;;;;;;33.73;17.43;;;6.20;99.90;;;;;;4144080;28;21025;-79
2022/03/29 05:43:18;;;;;;;36.90;16.53;;;6.20;99.90;;;;;;4140353;28;20618;-79
2022/03/29 05:45:21;;;;;;;34.03;17.03;;;6.20;99.90;;;;;;4140276;28;20664;-77
2022/03/29 05:49:42;;;;;;;36.00;17.40;;;6.20;99.90;;;;;;4140131;28;20868;-78
2022/03/29 05:51:44;;;;;;;35.33;18.07;;;6.10;99.90;;;;;;4141895;28;20850;-78
2022/03/29 05:53:45;;;;;;;38.10;18.53;;;6.20;99.90;;;;;;4140583;28;20949;-78
2022/03/29 05:55:48;;;;;;;33.80;17.03;;;6.10;99.90;;;;;;4137087;28;21017;-78
2022/03/29 05:57:50;;;;;;;38.80;18.03;;;6.20;99.90;;;;;;4141114;28;20467;-78
2022/03/29 05:59:53;;;;;;;37.17;18.77;;;6.20;99.90;;;;;;4140792;28;20486;-78
2022/03/29 06:01:57;;;;;;;42.10;19.80;;;6.20;99.90;;;;;;4140776;28;21032;-78
2022/03/29 06:03:59;;;;;;;41.43;19.87;;;6.20;99.90;;;;;;4141955;28;21037;-78
2022/03/29 06:06:01;;;;;;;35.03;18.40;;;6.20;99.90;;;;;;4139323;28;20504;-78
2022/03/29 06:08:03;;;;;;;43.07;19.50;;;6.20;99.90;;;;;;4140931;28;20491;-78
2022/03/29 06:10:06;;;;;;;45.07;20.70;;;6.20;99.90;;;;;;4144367;28;20820;-78
2022/03/29 06:12:08;;;;;;;42.77;21.80;;;6.20;99.90;;;;;;4146215;28;20861;-78
2022/03/29 06:14:10;;;;;;;42.60;21.57;;;6.20;99.90;;;;;;4142872;28;20478;-78
2022/03/29 06:16:13;;;;;;;42.73;20.50;;;6.20;99.90;;;;;;4144964;28;20535;-78
2022/03/29 06:18:15;;;;;;;42.27;20.90;;;6.20;99.90;;;;;;4146690;28;20458;-78
2022/03/29 06:20:17;;;;;;;42.87;20.07;;;6.20;99.90;;;;;;4146328;28;20940;-79
2022/03/29 06:22:19;;;;;;;41.23;19.60;;;6.20;99.90;;;;;;4148393;28;20525;-78
2022/03/29 06:24:22;;;;;;;42.47;20.67;;;6.20;99.90;;;;;;4145919;28;20487;-78
2022/03/29 06:26:23;;;;;;;40.47;19.87;;;6.20;99.90;;;;;;4140312;28;20492;-78
2022/03/29 06:28:25;;;;;;;39.83;19.23;;;6.20;99.90;;;;;;4143551;28;20548;-78
2022/03/29 06:30:27;;;;;;;42.80;20.83;;;6.30;99.90;;;;;;4143042;28;20985;-78
2022/03/29 06:32:30;;;;;;;37.17;18.90;;;6.20;99.90;;;;;;4145375;28;20463;-78
2022/03/29 06:34:35;;;;;;;38.07;19.63;;;6.30;99.90;;;;;;4144495;28;20462;-78
2022/03/29 06:36:37;;;;;;;42.40;19.43;;;6.30;99.90;;;;;;4140819;28;20465;-78
2022/03/29 06:38:39;;;;;;;43.13;19.83;;;6.20;99.90;;;;;;4143741;28;20514;-78
2022/03/29 06:40:40;;;;;;;37.27;18.20;;;6.20;99.90;;;;;;4144147;28;20463;-78
2022/03/29 06:42:42;;;;;;;43.07;19.57;;;6.20;99.90;;;;;;4140940;28;20525;-78
2022/03/29 06:44:44;;;;;;;39.03;19.33;;;6.20;99.90;;;;;;4142244;28;20732;-79
2022/03/29 06:46:47;;;;;;;38.37;18.37;;;6.30;99.90;;;;;;4139719;28;20471;-78
2022/03/29 06:48:50;;;;;;;40.97;18.87;;;6.30;99.90;;;;;;4130710;28;20502;-78
2022/03/29 06:50:52;;;;;;;39.30;18.97;;;6.40;99.90;;;;;;4140031;28;20941;-78
2022/03/29 06:52:54;;;;;;;37.43;18.60;;;6.30;99.90;;;;;;4141582;28;20507;-78
2022/03/29 06:54:56;;;;;;;37.53;18.90;;;6.40;99.90;;;;;;4139265;28;20491;-78
2022/03/29 06:56:57;;;;;;;35.97;18.03;;;6.40;99.90;;;;;;4139901;28;20897;-78
2022/03/29 06:59:01;;;;;;;35.40;17.07;;;6.40;99.90;;;;;;4138128;28;20478;-77
2022/03/29 07:01:04;;;;;;;33.47;17.17;;;6.50;99.90;;;;;;4134628;28;20530;-78
2022/03/29 07:03:06;;;;;;;40.47;18.17;;;6.50;99.90;;;;;;4139265;28;20460;-78
2022/03/29 07:05:10;;;;;;;31.97;16.23;;;6.50;99.90;;;;;;4135972;28;20488;-79
2022/03/29 07:07:11;;;;;;;32.77;16.37;;;6.50;99.90;;;;;;4137697;28;20478;-76
2022/03/29 07:11:32;;;;;;;35.00;17.47;;;6.50;99.90;;;;;;4136068;28;20963;-77
2022/03/29 07:13:36;;;;;;;38.80;17.70;;;6.50;99.90;;;;;;4134300;28;21025;-77
2022/03/29 07:15:37;;;;;;;37.13;17.27;;;6.60;99.90;;;;;;4133708;28;20483;-77
2022/03/29 07:17:39;;;;;;;35.93;17.47;;;6.60;99.90;;;;;;4138712;28;20551;-77
2022/03/29 07:19:41;;;;;;;36.77;18.20;;;6.50;99.90;;;;;;4140575;28;20927;-77
2022/03/29 07:21:44;;;;;;;37.77;18.10;;;6.60;99.90;;;;;;4144588;28;20820;-77
2022/03/29 07:23:46;;;;;;;35.47;16.17;;;6.60;99.90;;;;;;4145264;28;20456;-77
2022/03/29 07:25:48;;;;;;;33.47;16.27;;;6.70;99.90;;;;;;4139353;28;20473;-77
2022/03/29 07:27:52;;;;;;;37.40;17.27;;;6.70;99.90;;;;;;4142027;28;20492;-77
2022/03/29 07:29:54;;;;;;;35.37;17.60;;;6.70;99.90;;;;;;4139851;28;20495;-77
2022/03/29 07:31:55;;;;;;;34.83;16.57;;;6.70;99.90;;;;;;4139072;28;20480;-77
2022/03/29 07:33:57;;;;;;;36.80;17.27;;;6.70;99.90;;;;;;4138204;28;20978;-77
2022/03/29 07:36:00;;;;;;;42.53;19.00;;;6.70;99.90;;;;;;4137767;28;20474;-77
2022/03/29 07:38:07;;;;;;;39.27;19.07;;;6.70;99.90;;;;;;4136897;28;20468;-77
2022/03/29 07:40:10;;;;;;;44.87;18.80;;;6.70;99.90;;;;;;4138863;28;20519;-77
2022/03/29 07:42:12;;;;;;;42.87;19.00;;;6.60;99.90;;;;;;4137870;28;20482;-77
2022/03/29 07:44:14;;;;;;;40.77;18.23;;;6.70;99.90;;;;;;4136495;28;21111;-77
2022/03/29 07:46:16;;;;;;;36.33;17.63;;;6.70;99.90;;;;;;4137288;28;20520;-77
2022/03/29 07:48:17;;;;;;;41.73;19.27;;;6.80;99.90;;;;;;4137906;28;20494;-78
2022/03/29 07:50:20;;;;;;;36.90;18.33;;;6.80;99.90;;;;;;4138810;28;20605;-78
2022/03/29 07:52:22;;;;;;;43.57;19.43;;;6.80;99.90;;;;;;4136591;28;20495;-77
2022/03/29 07:54:25;;;;;;;35.17;18.03;;;7.00;99.90;;;;;;4139083;28;20806;-77
2022/03/29 07:56:27;;;;;;;34.77;18.13;;;6.70;99.90;;;;;;4137193;28;20836;-77
2022/03/29 07:58:28;;;;;;;38.10;18.40;;;6.90;99.90;;;;;;4138816;28;20465;-77
2022/03/29 08:00:34;;;;;;;40.83;18.77;;;6.90;99.90;;;;;;4139809;28;20473;-77
2022/03/29 08:02:35;;;;;;;38.67;17.50;;;6.90;99.90;;;;;;4139288;28;20461;-77
2022/03/29 08:04:37;;;;;;;36.97;18.97;;;6.90;99.90;;;;;;4138101;28;20464;-78
2022/03/29 08:06:39;;;;;;;39.43;20.13;;;6.90;99.90;;;;;;4137854;28;20877;-77
2022/03/29 08:08:41;;;;;;;43.43;19.87;;;6.80;99.90;;;;;;4137994;28;20543;-77
2022/03/29 08:10:45;;;;;;;41.03;18.50;;;6.90;99.90;;;;;;4138583;28;20565;-77
2022/03/29 08:12:47;;;;;;;34.63;18.13;;;7.00;99.90;;;;;;4135167;28;20534;-77
2022/03/29 08:14:48;;;;;;;41.93;19.00;;;6.90;99.90;;;;;;4139386;28;20931;-79
2022/03/29 08:16:50;;;;;;;37.73;18.13;;;7.00;99.90;;;;;;4132051;28;20473;-78
2022/03/29 08:20:55;;;;;;;35.73;17.47;;;7.20;99.90;;;;;;4136112;28;20484;-74
2022/03/29 08:23:00;;;;;;;35.97;16.90;;;7.30;99.90;;;;;;4138801;28;20805;-78
2022/03/29 08:25:03;;;;;;;38.53;17.13;;;7.30;99.90;;;;;;4141974;28;20467;-75
2022/03/29 08:27:06;;;;;;;39.40;18.27;;;7.40;99.90;;;;;;4138884;28;20950;-77
2022/03/29 08:29:08;;;;;;;41.57;19.20;;;7.50;99.90;;;;;;4136578;28;20499;-74
2022/03/29 08:31:10;;;;;;;36.77;18.07;;;7.50;99.90;;;;;;4123335;28;21214;-74
2022/03/29 08:33:15;;;;;;;34.37;17.83;;;7.50;99.90;;;;;;4123275;28;20463;-76
2022/03/29 08:35:17;;;;;;;35.07;17.00;;;7.50;99.90;;;;;;4121304;28;20467;-77
2022/03/29 08:37:18;;;;;;;34.97;16.73;;;7.50;99.90;;;;;;4122805;28;20508;-77
2022/03/29 08:39:20;;;;;;;33.00;16.87;;;7.50;99.90;;;;;;4122883;28;20514;-77
2022/03/29 08:41:23;;;;;;;32.90;16.80;;;7.50;99.90;;;;;;4124833;28;20565;-78
2022/03/29 08:43:31;;;;;;;35.83;17.37;;;7.60;99.90;;;;;;4133619;28;20584;-78
2022/03/29 08:45:33;;;;;;;42.17;17.80;;;7.50;99.90;;;;;;4127607;28;20516;-75
2022/03/29 08:47:34;;;;;;;32.60;16.47;;;7.50;99.90;;;;;;4122326;28;20509;-79
2022/03/29 08:49:37;;;;;;;32.27;16.53;;;7.60;99.90;;;;;;4121347;28;20505;-79
2022/03/29 08:51:40;;;;;;;36.17;18.13;;;7.70;99.90;;;;;;4121514;28;20468;-75
2022/03/29 08:53:44;;;;;;;37.03;17.03;;;7.70;99.90;;;;;;4122477;28;20877;-76
2022/03/29 08:55:46;;;;;;;32.33;16.23;;;7.60;99.90;;;;;;4119550;28;20479;-74
2022/03/29 08:57:52;;;;;;;32.17;17.27;;;7.70;99.90;;;;;;4119907;28;20467;-74
2022/03/29 08:59:55;;;;;;;35.00;16.17;;;7.80;99.90;;;;;;4117377;28;20502;-76
2022/03/29 09:01:57;;;;;;;36.43;17.00;;;7.90;99.90;;;;;;4120175;28;20466;-77
2022/03/29 09:04:10;;;;;;;34.70;16.67;;;7.80;99.90;;;;;;4118985;28;21027;-75
2022/03/29 09:06:12;;;;;;;35.53;16.20;;;7.90;99.90;;;;;;4119096;28;20501;-76
2022/03/29 09:08:15;;;;;;;35.23;16.93;;;7.80;99.90;;;;;;4121596;28;21000;-75
2022/03/29 09:10:17;;;;;;;33.73;15.73;;;7.90;99.90;;;;;;4118789;28;21021;-77
2022/03/29 09:12:22;;;;;;;33.07;16.90;;;8.00;99.90;;;;;;4124067;28;20459;-76
2022/03/29 09:14:25;;;;;;;34.87;17.37;;;8.10;99.90;;;;;;4117816;28;20488;-76
2022/03/29 09:16:30;;;;;;;36.80;18.13;;;8.20;99.90;;;;;;4120151;28;20959;-75
2022/03/29 09:18:32;;;;;;;32.80;16.47;;;8.10;99.90;;;;;;4122701;28;20493;-75
2022/03/29 09:20:34;;;;;;;33.17;17.13;;;8.30;99.90;;;;;;4124344;28;20858;-74
2022/03/29 09:22:39;;;;;;;29.63;16.10;;;8.50;99.90;;;;;;4125618;28;20448;-76
2022/03/29 09:24:55;;;;;;;34.27;16.90;;;8.60;99.90;;;;;;4122397;28;20472;-73
2022/03/29 09:26:56;;;;;;;34.90;16.67;;;8.60;99.90;;;;;;4123181;28;20486;-76
2022/03/29 09:28:58;;;;;;;36.60;17.20;;;8.80;99.90;;;;;;4124797;28;20491;-78
2022/03/29 09:31:00;;;;;;;32.90;16.10;;;8.80;99.90;;;;;;4124157;28;20502;-76
2022/03/29 09:33:05;;;;;;;36.37;17.63;;;8.80;99.90;;;;;;4125697;28;20459;-75
2022/03/29 09:35:11;;;;;;;31.80;16.27;;;8.70;99.90;;;;;;4120754;28;21303;-77
2022/03/29 09:37:12;;;;;;;36.10;16.80;;;8.90;99.90;;;;;;4122326;28;20463;-76
2022/03/29 09:39:30;;;;;;;35.67;17.40;;;8.80;99.90;;;;;;4124301;28;20475;-78
2022/03/29 09:41:32;;;;;;;34.20;16.57;;;8.80;99.90;;;;;;4128549;28;20564;-77
2022/03/29 09:43:36;;;;;;;39.27;18.80;;;9.00;99.90;;;;;;4127651;28;20212;-77
2022/03/29 09:45:47;;;;;;;36.30;17.40;;;9.00;99.90;;;;;;4121983;28;20208;-75
2022/03/29 09:47:49;;;;;;;32.50;17.23;;;9.10;99.90;;;;;;4125471;28;20666;-75
2022/03/29 09:49:58;;;;;;;33.63;16.77;;;9.20;99.90;;;;;;4124004;28;20535;-76
2022/03/29 09:52:11;;;;;;;37.07;16.90;;;9.30;99.90;;;;;;4122336;28;20997;-78
2022/03/29 09:54:13;;;;;;;32.97;16.40;;;9.30;99.90;;;;;;4121907;28;20220;-77
2022/03/29 09:56:16;;;;;;;33.70;16.57;;;9.40;99.90;;;;;;4123164;28;20213;-80
2022/03/29 09:58:18;;;;;;;35.77;17.17;;;9.40;99.90;;;;;;4124391;28;20639;-80
2022/03/29 10:00:36;;;;;;;35.03;17.17;;;9.40;99.90;;;;;;4124456;28;21093;-78
2022/03/29 10:02:40;;;;;;;40.03;17.37;;;9.50;99.90;;;;;;4125593;28;20232;-79
2022/03/29 10:04:43;;;;;;;30.67;16.50;;;9.50;99.90;;;;;;4116795;28;20229;-79
2022/03/29 10:06:49;;;;;;;36.90;17.13;;;9.50;99.90;;;;;;4133386;28;20520;-77
2022/03/29 10:11:13;;;;;;;35.83;17.83;;;9.60;99.90;;;;;;4122041;28;20345;-77
2022/03/29 10:13:20;;;;;;;36.53;17.43;;;9.70;99.90;;;;;;4132451;28;20212;-79
2022/03/29 10:15:22;;;;;;;35.07;17.07;;;9.60;99.90;;;;;;4111137;28;20223;-78
2022/03/29 10:17:25;;;;;;;34.97;17.13;;;9.30;99.90;;;;;;4117252;28;20224;-78
2022/03/29 10:19:27;;;;;;;37.40;17.77;;;9.50;99.90;;;;;;4125076;28;20269;-78
2022/03/29 10:21:30;;;;;;;37.67;17.33;;;9.60;99.90;;;;;;4124870;28;20307;-76
2022/03/29 10:23:36;;;;;;;31.13;17.17;;;9.70;99.90;;;;;;4124477;28;20662;-78
2022/03/29 10:25:39;;;;;;;33.00;17.43;;;9.80;99.90;;;;;;4123531;28;20213;-77
2022/03/29 10:27:42;;;;;;;35.67;17.40;;;9.90;99.90;;;;;;4122987;28;20205;-76
2022/03/29 10:29:44;;;;;;;35.07;18.23;;;10.00;99.90;;;;;;4123502;28;20244;-78
2022/03/29 10:31:51;;;;;;;33.73;17.10;;;10.10;99.90;;;;;;4126325;28;20515;-77
2022/03/29 10:34:12;;;;;;;37.63;18.10;;;10.10;99.90;;;;;;4123838;28;20305;-78
2022/03/29 10:36:14;;;;;;;37.53;18.17;;;10.10;99.90;;;;;;4121953;28;20256;-78
2022/03/29 10:38:15;;;;;;;40.10;18.00;;;10.00;99.90;;;;;;4123480;28;20296;-78